sensor_id;sensor_type;location;lat;lon;timestamp;pressure;altitude;pressure_sealevel;temperature;humidity
30724;BME280;17473;52.286;20.930;2022-09-25T00:01:09;100213.41;;;10.36;81.52
30724;BME280;17473;52.286;20.930;2022-09-25T00:03:37;100209.66;;;10.28;82.32
30724;BME280;17473;52.286;20.930;2022-09-25T00:06:14;100212.09;;;10.22;83.35
30724;BME280;17473;52.286;20.930;2022-09-25T00:08:42;100206.59;;;10.15;83.11
30724;BME280;17473;52.286;20.930;2022-09-25T00:11:23;100203.38;;;10.24;82.93
30724;BME280;17473;52.286;20.930;2022-09-25T00:13:50;100209.31;;;10.17;82.52
30724;BME280;17473;52.286;20.930;2022-09-25T00:16:22;100207.50;;;10.16;83.37
30724;BME280;17473;52.286;20.930;2022-09-25T00:18:50;100203.56;;;10.03;84.42
30724;BME280;17473;52.286;20.930;2022-09-25T00:21:37;100206.25;;;10.05;84.44
30724;BME280;17473;52.286;20.930;2022-09-25T00:24:07;100207.59;;;9.92;84.70
30724;BME280;17473;52.286;20.930;2022-09-25T00:26:39;100207.53;;;9.90;83.92
30724;BME280;17473;52.286;20.930;2022-09-25T00:29:09;100203.50;;;10.01;82.88
30724;BME280;17473;52.286;20.930;2022-09-25T00:31:39;100205.63;;;10.13;83.17
30724;BME280;17473;52.286;20.930;2022-09-25T00:34:06;100203.34;;;9.97;83.97
30724;BME280;17473;52.286;20.930;2022-09-25T00:36:34;100206.81;;;9.96;83.16
30724;BME280;17473;52.286;20.930;2022-09-25T00:39:01;100206.38;;;10.08;81.98
30724;BME280;17473;52.286;20.930;2022-09-25T00:41:29;100202.94;;;10.10;82.76
30724;BME280;17473;52.286;20.930;2022-09-25T00:44:00;100197.69;;;9.84;84.26
30724;BME280;17473;52.286;20.930;2022-09-25T00:46:35;100206.66;;;9.91;83.96
30724;BME280;17473;52.286;20.930;2022-09-25T00:49:18;100197.22;;;9.98;83.69
30724;BME280;17473;52.286;20.930;2022-09-25T00:52:04;100193.28;;;9.85;83.77
30724;BME280;17473;52.286;20.930;2022-09-25T00:54:50;100200.31;;;9.84;83.28
30724;BME280;17473;52.286;20.930;2022-09-25T00:57:21;100199.88;;;9.72;84.13
30724;BME280;17473;52.286;20.930;2022-09-25T00:59:58;100195.72;;;9.79;83.10
30724;BME280;17473;52.286;20.930;2022-09-25T01:02:30;100193.94;;;9.78;82.60
30724;BME280;17473;52.286;20.930;2022-09-25T01:05:09;100199.25;;;9.79;81.73
30724;BME280;17473;52.286;20.930;2022-09-25T01:07:40;100200.22;;;9.55;83.68
30724;BME280;17473;52.286;20.930;2022-09-25T01:10:09;100191.66;;;9.63;83.51
30724;BME280;17473;52.286;20.930;2022-09-25T01:12:40;100195.94;;;9.59;84.12
30724;BME280;17473;52.286;20.930;2022-09-25T01:15:11;100201.97;;;9.81;82.90
30724;BME280;17473;52.286;20.930;2022-09-25T01:31:02;100182.69;;;9.83;82.48
30724;BME280;17473;52.286;20.930;2022-09-25T01:33:38;100190.13;;;9.69;82.65
30724;BME280;17473;52.286;20.930;2022-09-25T01:36:20;100184.34;;;9.80;82.35
30724;BME280;17473;52.286;20.930;2022-09-25T01:38:56;100181.13;;;9.63;82.28
30724;BME280;17473;52.286;20.930;2022-09-25T01:41:37;100179.28;;;9.60;82.67
30724;BME280;17473;52.286;20.930;2022-09-25T01:44:20;100187.22;;;9.62;82.82
30724;BME280;17473;52.286;20.930;2022-09-25T01:46:51;100176.69;;;9.62;81.99
30724;BME280;17473;52.286;20.930;2022-09-25T01:49:34;100185.44;;;9.61;82.15
30724;BME280;17473;52.286;20.930;2022-09-25T01:52:09;100179.72;;;9.73;81.80
30724;BME280;17473;52.286;20.930;2022-09-25T01:54:50;100178.44;;;9.61;82.10
30724;BME280;17473;52.286;20.930;2022-09-25T01:57:30;100171.88;;;9.50;83.17
30724;BME280;17473;52.286;20.930;2022-09-25T02:02:40;100172.25;;;9.61;82.70
30724;BME280;17473;52.286;20.930;2022-09-25T02:08:11;100168.09;;;9.67;81.43
30724;BME280;17473;52.286;20.930;2022-09-25T02:10:50;100172.56;;;9.70;81.29
30724;BME280;17473;52.286;20.930;2022-09-25T02:13:24;100168.25;;;9.72;81.32
30724;BME280;17473;52.286;20.930;2022-09-25T02:15:57;100168.38;;;9.49;81.73
30724;BME280;17473;52.286;20.930;2022-09-25T02:18:26;100173.00;;;9.31;83.29
30724;BME280;17473;52.286;20.930;2022-09-25T02:23:55;100154.88;;;9.40;82.42
30724;BME280;17473;52.286;20.930;2022-09-25T02:26:32;100161.63;;;9.58;81.64
30724;BME280;17473;52.286;20.930;2022-09-25T02:29:00;100155.28;;;9.52;81.46
30724;BME280;17473;52.286;20.930;2022-09-25T02:31:35;100154.41;;;9.52;81.39
30724;BME280;17473;52.286;20.930;2022-09-25T02:34:06;100147.50;;;9.55;80.86
30724;BME280;17473;52.286;20.930;2022-09-25T02:36:41;100153.31;;;9.47;81.04
30724;BME280;17473;52.286;20.930;2022-09-25T02:39:09;100141.53;;;9.61;80.80
30724;BME280;17473;52.286;20.930;2022-09-25T02:57:14;100137.47;;;9.19;82.35
30724;BME280;17473;52.286;20.930;2022-09-25T02:59:52;100138.75;;;9.31;82.33
30724;BME280;17473;52.286;20.930;2022-09-25T03:02:22;100140.53;;;9.32;81.98
30724;BME280;17473;52.286;20.930;2022-09-25T03:04:51;100128.28;;;9.34;81.96
30724;BME280;17473;52.286;20.930;2022-09-25T03:07:19;100131.69;;;9.30;82.06
30724;BME280;17473;52.286;20.930;2022-09-25T03:09:48;100131.75;;;9.33;81.86
30724;BME280;17473;52.286;20.930;2022-09-25T03:12:17;100138.41;;;9.21;81.97
30724;BME280;17473;52.286;20.930;2022-09-25T03:14:44;100135.19;;;9.30;82.22
30724;BME280;17473;52.286;20.930;2022-09-25T03:17:13;100135.50;;;9.14;83.05
30724;BME280;17473;52.286;20.930;2022-09-25T03:19:41;100132.88;;;8.89;84.02
30724;BME280;17473;52.286;20.930;2022-09-25T03:22:08;100130.91;;;8.84;84.75
30724;BME280;17473;52.286;20.930;2022-09-25T03:24:35;100125.63;;;8.84;85.19
30724;BME280;17473;52.286;20.930;2022-09-25T03:27:04;100126.44;;;8.81;85.37
30724;BME280;17473;52.286;20.930;2022-09-25T03:29:31;100123.88;;;8.83;85.60
30724;BME280;17473;52.286;20.930;2022-09-25T03:31:58;100132.53;;;8.80;86.07
30724;BME280;17473;52.286;20.930;2022-09-25T03:34:25;100123.63;;;8.76;86.20
30724;BME280;17473;52.286;20.930;2022-09-25T03:36:52;100130.19;;;8.88;85.85
30724;BME280;17473;52.286;20.930;2022-09-25T03:39:19;100125.19;;;8.71;86.33
30724;BME280;17473;52.286;20.930;2022-09-25T03:41:46;100130.81;;;8.81;86.08
30724;BME280;17473;52.286;20.930;2022-09-25T03:44:13;100139.53;;;8.80;85.73
30724;BME280;17473;52.286;20.930;2022-09-25T03:46:41;100135.66;;;8.70;86.42
30724;BME280;17473;52.286;20.930;2022-09-25T03:49:08;100137.63;;;8.75;86.25
30724;BME280;17473;52.286;20.930;2022-09-25T03:51:36;100131.78;;;8.60;86.28
30724;BME280;17473;52.286;20.930;2022-09-25T03:54:04;100123.94;;;8.61;86.00
30724;BME280;17473;52.286;20.930;2022-09-25T03:56:32;100128.44;;;8.64;86.00
30724;BME280;17473;52.286;20.930;2022-09-25T03:58:59;100128.84;;;8.75;84.93
30724;BME280;17473;52.286;20.930;2022-09-25T04:01:27;100126.69;;;8.65;84.82
30724;BME280;17473;52.286;20.930;2022-09-25T04:03:55;100132.97;;;8.68;84.97
30724;BME280;17473;52.286;20.930;2022-09-25T04:06:24;100142.53;;;8.66;85.49
30724;BME280;17473;52.286;20.930;2022-09-25T04:08:52;100128.03;;;8.53;86.18
30724;BME280;17473;52.286;20.930;2022-09-25T04:11:22;100135.47;;;8.65;85.83
30724;BME280;17473;52.286;20.930;2022-09-25T04:13:50;100135.34;;;8.60;85.77
30724;BME280;17473;52.286;20.930;2022-09-25T04:16:19;100131.44;;;8.51;86.22
30724;BME280;17473;52.286;20.930;2022-09-25T04:18:49;100138.25;;;8.45;86.49
30724;BME280;17473;52.286;20.930;2022-09-25T04:21:16;100135.00;;;8.51;86.45
30724;BME280;17473;52.286;20.930;2022-09-25T04:23:43;100135.16;;;8.56;86.15
30724;BME280;17473;52.286;20.930;2022-09-25T04:26:31;100130.28;;;8.67;85.57
30724;BME280;17473;52.286;20.930;2022-09-25T04:28:58;100128.44;;;8.64;85.39
30724;BME280;17473;52.286;20.930;2022-09-25T04:31:28;100122.66;;;8.50;85.64
30724;BME280;17473;52.286;20.930;2022-09-25T04:33:55;100133.94;;;8.70;85.01
30724;BME280;17473;52.286;20.930;2022-09-25T04:36:22;100135.16;;;8.80;84.44
30724;BME280;17473;52.286;20.930;2022-09-25T04:38:49;100126.88;;;8.69;84.54
30724;BME280;17473;52.286;20.930;2022-09-25T04:41:16;100135.06;;;8.77;84.19
30724;BME280;17473;52.286;20.930;2022-09-25T04:43:46;100131.25;;;8.93;83.62
30724;BME280;17473;52.286;20.930;2022-09-25T04:46:14;100121.28;;;9.08;82.51
30724;BME280;17473;52.286;20.930;2022-09-25T04:48:47;100130.22;;;9.14;82.21
30724;BME280;17473;52.286;20.930;2022-09-25T04:51:14;100130.91;;;9.08;82.23
30724;BME280;17473;52.286;20.930;2022-09-25T04:53:41;100135.22;;;9.06;83.19
30724;BME280;17473;52.286;20.930;2022-09-25T04:56:08;100119.06;;;9.47;81.32
30724;BME280;17473;52.286;20.930;2022-09-25T04:58:49;100130.34;;;10.23;77.28
30724;BME280;17473;52.286;20.930;2022-09-25T05:01:18;100123.69;;;10.65;75.40
30724;BME280;17473;52.286;20.930;2022-09-25T05:03:50;100116.56;;;11.25;72.04
30724;BME280;17473;52.286;20.930;2022-09-25T05:06:20;100118.25;;;11.56;71.14
30724;BME280;17473;52.286;20.930;2022-09-25T05:08:48;100112.19;;;13.21;65.04
30724;BME280;17473;52.286;20.930;2022-09-25T05:11:15;100107.31;;;13.97;61.49
30724;BME280;17473;52.286;20.930;2022-09-25T05:13:43;100111.81;;;14.02;60.96
30724;BME280;17473;52.286;20.930;2022-09-25T05:16:12;100117.00;;;14.56;58.41
30724;BME280;17473;52.286;20.930;2022-09-25T05:18:40;100106.66;;;14.75;58.02
30724;BME280;17473;52.286;20.930;2022-09-25T05:21:06;100114.75;;;14.85;56.79
30724;BME280;17473;52.286;20.930;2022-09-25T05:23:33;100109.97;;;14.61;57.13
30724;BME280;17473;52.286;20.930;2022-09-25T05:26:01;100113.78;;;14.14;58.06
30724;BME280;17473;52.286;20.930;2022-09-25T05:28:30;100125.31;;;14.16;58.48
30724;BME280;17473;52.286;20.930;2022-09-25T05:30:59;100125.03;;;13.98;58.79
30724;BME280;17473;52.286;20.930;2022-09-25T05:33:34;100124.41;;;14.79;57.09
30724;BME280;17473;52.286;20.930;2022-09-25T05:36:05;100125.88;;;14.58;57.58
30724;BME280;17473;52.286;20.930;2022-09-25T05:38:37;100127.94;;;14.79;57.58
30724;BME280;17473;52.286;20.930;2022-09-25T05:41:08;100137.91;;;17.57;49.72
30724;BME280;17473;52.286;20.930;2022-09-25T05:43:41;100123.47;;;18.92;47.12
30724;BME280;17473;52.286;20.930;2022-09-25T05:46:09;100125.97;;;19.28;45.52
30724;BME280;17473;52.286;20.930;2022-09-25T05:48:37;100124.63;;;19.93;43.50
30724;BME280;17473;52.286;20.930;2022-09-25T05:51:04;100131.88;;;21.40;40.11
30724;BME280;17473;52.286;20.930;2022-09-25T05:53:31;100123.31;;;22.26;39.18
30724;BME280;17473;52.286;20.930;2022-09-25T05:56:01;100118.31;;;24.15;35.39
30724;BME280;17473;52.286;20.930;2022-09-25T05:58:30;100119.19;;;24.15;34.64
30724;BME280;17473;52.286;20.930;2022-09-25T06:01:01;100129.09;;;24.81;33.88
30724;BME280;17473;52.286;20.930;2022-09-25T06:03:29;100131.78;;;24.81;33.49
30724;BME280;17473;52.286;20.930;2022-09-25T06:05:58;100132.09;;;25.02;32.87
30724;BME280;17473;52.286;20.930;2022-09-25T06:08:26;100131.50;;;24.92;33.06
30724;BME280;17473;52.286;20.930;2022-09-25T06:10:54;100144.75;;;25.59;32.43
30724;BME280;17473;52.286;20.930;2022-09-25T06:13:22;100131.72;;;25.72;32.50
30724;BME280;17473;52.286;20.930;2022-09-25T06:15:51;100135.19;;;25.47;31.67
30724;BME280;17473;52.286;20.930;2022-09-25T06:18:20;100125.94;;;25.83;31.05
30724;BME280;17473;52.286;20.930;2022-09-25T06:20:49;100128.81;;;26.05;30.22
30724;BME280;17473;52.286;20.930;2022-09-25T06:23:17;100127.16;;;26.79;30.55
30724;BME280;17473;52.286;20.930;2022-09-25T06:25:45;100121.22;;;26.67;29.63
30724;BME280;17473;52.286;20.930;2022-09-25T06:28:12;100122.59;;;26.54;29.70
30724;BME280;17473;52.286;20.930;2022-09-25T06:30:39;100131.56;;;26.56;29.07
30724;BME280;17473;52.286;20.930;2022-09-25T06:33:10;100120.72;;;26.56;28.84
30724;BME280;17473;52.286;20.930;2022-09-25T06:35:46;100124.56;;;26.99;28.32
30724;BME280;17473;52.286;20.930;2022-09-25T06:38:15;100126.31;;;27.24;28.11
30724;BME280;17473;52.286;20.930;2022-09-25T06:40:42;100117.38;;;28.11;26.95
30724;BME280;17473;52.286;20.930;2022-09-25T06:43:14;100117.94;;;28.40;26.24
30724;BME280;17473;52.286;20.930;2022-09-25T06:45:42;100111.47;;;28.42;26.00
30724;BME280;17473;52.286;20.930;2022-09-25T06:48:12;100121.44;;;28.42;26.12
30724;BME280;17473;52.286;20.930;2022-09-25T06:50:46;100112.09;;;28.08;26.35
30724;BME280;17473;52.286;20.930;2022-09-25T06:53:15;100112.19;;;28.27;26.40
30724;BME280;17473;52.286;20.930;2022-09-25T06:55:43;100108.69;;;28.44;26.26
30724;BME280;17473;52.286;20.930;2022-09-25T06:58:19;100119.63;;;29.22;25.51
30724;BME280;17473;52.286;20.930;2022-09-25T07:00:54;100115.94;;;29.23;26.49
30724;BME280;17473;52.286;20.930;2022-09-25T07:03:22;100109.66;;;29.42;26.29
30724;BME280;17473;52.286;20.930;2022-09-25T07:06:10;100112.09;;;29.65;26.38
30724;BME280;17473;52.286;20.930;2022-09-25T07:08:38;100110.16;;;28.51;27.04
30724;BME280;17473;52.286;20.930;2022-09-25T07:11:06;100113.50;;;29.55;25.90
30724;BME280;17473;52.286;20.930;2022-09-25T07:13:34;100099.81;;;28.40;27.41
30724;BME280;17473;52.286;20.930;2022-09-25T07:16:11;100102.00;;;29.31;26.08
30724;BME280;17473;52.286;20.930;2022-09-25T07:18:38;100101.81;;;30.60;25.25
30724;BME280;17473;52.286;20.930;2022-09-25T07:21:13;100095.16;;;30.66;25.35
30724;BME280;17473;52.286;20.930;2022-09-25T07:23:41;100099.06;;;29.72;26.37
30724;BME280;17473;52.286;20.930;2022-09-25T07:28:39;100099.78;;;29.76;25.77
30724;BME280;17473;52.286;20.930;2022-09-25T07:31:18;100100.63;;;29.59;25.59
30724;BME280;17473;52.286;20.930;2022-09-25T07:33:46;100104.66;;;29.13;26.14
30724;BME280;17473;52.286;20.930;2022-09-25T07:36:16;100103.09;;;27.63;27.39
30724;BME280;17473;52.286;20.930;2022-09-25T07:38:47;100099.31;;;26.99;28.29
30724;BME280;17473;52.286;20.930;2022-09-25T07:41:16;100106.81;;;25.89;30.02
30724;BME280;17473;52.286;20.930;2022-09-25T07:43:44;100106.84;;;27.37;28.38
30724;BME280;17473;52.286;20.930;2022-09-25T07:46:11;100096.91;;;28.02;26.75
30724;BME280;17473;52.286;20.930;2022-09-25T07:48:38;100103.78;;;28.52;26.87
30724;BME280;17473;52.286;20.930;2022-09-25T07:51:10;100101.69;;;26.84;28.03
30724;BME280;17473;52.286;20.930;2022-09-25T07:53:38;100097.88;;;27.58;27.58
30724;BME280;17473;52.286;20.930;2022-09-25T07:56:08;100102.41;;;27.58;27.95
30724;BME280;17473;52.286;20.930;2022-09-25T07:58:35;100095.06;;;28.25;26.66
30724;BME280;17473;52.286;20.930;2022-09-25T08:01:05;100100.16;;;27.23;27.91
30724;BME280;17473;52.286;20.930;2022-09-25T08:03:33;100088.81;;;26.66;28.70
30724;BME280;17473;52.286;20.930;2022-09-25T08:06:09;100092.66;;;26.84;28.80
30724;BME280;17473;52.286;20.930;2022-09-25T08:08:41;100100.63;;;27.57;28.22
30724;BME280;17473;52.286;20.930;2022-09-25T08:11:11;100093.75;;;27.70;27.49
30724;BME280;17473;52.286;20.930;2022-09-25T08:13:40;100092.56;;;26.85;28.15
30724;BME280;17473;52.286;20.930;2022-09-25T08:16:14;100090.34;;;26.22;29.49
30724;BME280;17473;52.286;20.930;2022-09-25T08:18:45;100100.28;;;25.41;30.39
30724;BME280;17473;52.286;20.930;2022-09-25T08:21:15;100093.22;;;25.07;30.90
30724;BME280;17473;52.286;20.930;2022-09-25T08:23:50;100092.84;;;24.90;31.23
30724;BME280;17473;52.286;20.930;2022-09-25T08:26:19;100085.19;;;26.16;29.88
30724;BME280;17473;52.286;20.930;2022-09-25T08:28:47;100101.00;;;25.46;30.78
30724;BME280;17473;52.286;20.930;2022-09-25T08:31:14;100094.88;;;25.11;31.17
30724;BME280;17473;52.286;20.930;2022-09-25T08:33:46;100086.25;;;25.57;30.85
30724;BME280;17473;52.286;20.930;2022-09-25T08:36:16;100085.63;;;24.59;31.68
30724;BME280;17473;52.286;20.930;2022-09-25T08:38:44;100084.59;;;24.63;31.65
30724;BME280;17473;52.286;20.930;2022-09-25T08:41:25;100094.78;;;24.84;31.43
30724;BME280;17473;52.286;20.930;2022-09-25T08:47:15;100076.53;;;25.23;31.44
30724;BME280;17473;52.286;20.930;2022-09-25T08:50:22;100074.16;;;25.12;30.24
30724;BME280;17473;52.286;20.930;2022-09-25T08:53:08;100075.53;;;25.25;29.86
30724;BME280;17473;52.286;20.930;2022-09-25T08:55:40;100070.66;;;25.65;29.00
30724;BME280;17473;52.286;20.930;2022-09-25T08:58:33;100066.91;;;26.23;28.92
30724;BME280;17473;52.286;20.930;2022-09-25T09:01:18;100075.28;;;26.15;28.92
30724;BME280;17473;52.286;20.930;2022-09-25T09:04:04;100065.47;;;26.13;28.58
30724;BME280;17473;52.286;20.930;2022-09-25T09:06:38;100055.19;;;25.97;28.40
30724;BME280;17473;52.286;20.930;2022-09-25T09:09:19;100062.88;;;24.69;30.62
30724;BME280;17473;52.286;20.930;2022-09-25T09:11:54;100057.69;;;24.60;30.55
30724;BME280;17473;52.286;20.930;2022-09-25T09:14:28;100046.44;;;25.35;29.63
30724;BME280;17473;52.286;20.930;2022-09-25T09:17:06;100047.03;;;25.72;29.17
30724;BME280;17473;52.286;20.930;2022-09-25T09:19:38;100051.84;;;24.77;30.87
30724;BME280;17473;52.286;20.930;2022-09-25T09:22:10;100049.41;;;24.66;31.28
30724;BME280;17473;52.286;20.930;2022-09-25T09:25:08;100047.00;;;25.99;29.24
30724;BME280;17473;52.286;20.930;2022-09-25T09:28:05;100039.28;;;25.61;29.64
30724;BME280;17473;52.286;20.930;2022-09-25T09:31:10;100038.81;;;25.75;29.77
30724;BME280;17473;52.286;20.930;2022-09-25T09:34:19;100038.00;;;24.88;31.48
30724;BME280;17473;52.286;20.930;2022-09-25T09:37:29;100041.78;;;25.10;30.52
30724;BME280;17473;52.286;20.930;2022-09-25T09:46:21;100026.16;;;24.62;30.74
30724;BME280;17473;52.286;20.930;2022-09-25T09:49:20;100023.69;;;25.42;29.26
30724;BME280;17473;52.286;20.930;2022-09-25T09:52:02;100010.66;;;24.98;30.05
30724;BME280;17473;52.286;20.930;2022-09-25T09:54:54;100017.78;;;24.41;30.91
30724;BME280;17473;52.286;20.930;2022-09-25T09:57:29;99993.94;;;25.15;30.16
30724;BME280;17473;52.286;20.930;2022-09-25T10:00:03;99999.47;;;25.39;29.97
30724;BME280;17473;52.286;20.930;2022-09-25T10:02:52;99991.28;;;24.85;30.79
30724;BME280;17473;52.286;20.930;2022-09-25T10:05:40;99992.47;;;24.77;30.89
30724;BME280;17473;52.286;20.930;2022-09-25T10:08:09;99990.34;;;23.94;31.28
30724;BME280;17473;52.286;20.930;2022-09-25T10:10:51;99984.28;;;23.51;32.50
30724;BME280;17473;52.286;20.930;2022-09-25T10:13:25;99984.59;;;24.37;31.48
30724;BME280;17473;52.286;20.930;2022-09-25T10:16:21;99979.28;;;23.70;32.17
30724;BME280;17473;52.286;20.930;2022-09-25T10:19:00;99979.03;;;24.44;31.54
30724;BME280;17473;52.286;20.930;2022-09-25T10:21:37;99972.88;;;24.70;31.23
30724;BME280;17473;52.286;20.930;2022-09-25T10:24:05;99973.63;;;25.04;30.09
30724;BME280;17473;52.286;20.930;2022-09-25T10:26:38;99981.22;;;24.61;30.34
30724;BME280;17473;52.286;20.930;2022-09-25T10:31:50;99976.19;;;24.48;30.71
30724;BME280;17473;52.286;20.930;2022-09-25T10:34:22;99973.88;;;24.04;30.79
30724;BME280;17473;52.286;20.930;2022-09-25T10:36:52;99981.06;;;24.04;30.72
30724;BME280;17473;52.286;20.930;2022-09-25T10:39:33;99966.28;;;23.86;31.29
30724;BME280;17473;52.286;20.930;2022-09-25T10:42:39;99975.25;;;25.09;30.08
30724;BME280;17473;52.286;20.930;2022-09-25T10:47:51;99954.97;;;24.66;29.83
30724;BME280;17473;52.286;20.930;2022-09-25T10:50:37;99961.19;;;24.98;29.31
30724;BME280;17473;52.286;20.930;2022-09-25T10:53:04;99959.44;;;24.68;29.54
30724;BME280;17473;52.286;20.930;2022-09-25T10:55:40;99952.13;;;24.72;30.33
30724;BME280;17473;52.286;20.930;2022-09-25T11:00:55;99950.09;;;24.79;29.81
30724;BME280;17473;52.286;20.930;2022-09-25T11:03:36;99950.47;;;24.96;29.39
30724;BME280;17473;52.286;20.930;2022-09-25T11:06:26;99935.91;;;25.00;29.13
30724;BME280;17473;52.286;20.930;2022-09-25T11:09:19;99941.94;;;23.89;30.89
30724;BME280;17473;52.286;20.930;2022-09-25T11:11:49;99932.19;;;23.52;31.41
30724;BME280;17473;52.286;20.930;2022-09-25T11:14:26;99926.66;;;24.21;30.65
30724;BME280;17473;52.286;20.930;2022-09-25T11:17:03;99935.91;;;23.79;30.51
30724;BME280;17473;52.286;20.930;2022-09-25T11:19:37;99931.75;;;23.67;30.83
30724;BME280;17473;52.286;20.930;2022-09-25T11:22:38;99936.28;;;23.65;30.65
30724;BME280;17473;52.286;20.930;2022-09-25T11:25:25;99928.44;;;23.57;30.98
30724;BME280;17473;52.286;20.930;2022-09-25T11:36:42;99911.03;;;23.36;31.00
30724;BME280;17473;52.286;20.930;2022-09-25T11:39:30;99906.28;;;23.10;31.27
30724;BME280;17473;52.286;20.930;2022-09-25T11:43:19;99906.53;;;23.01;31.73
30724;BME280;17473;52.286;20.930;2022-09-25T11:48:17;99901.47;;;23.24;30.62
30724;BME280;17473;52.286;20.930;2022-09-25T11:51:16;99907.56;;;23.64;30.12
30724;BME280;17473;52.286;20.930;2022-09-25T11:59:54;99911.72;;;22.31;31.94
30724;BME280;17473;52.286;20.930;2022-09-25T12:06:11;99896.34;;;21.49;33.44
30724;BME280;17473;52.286;20.930;2022-09-25T12:15:01;99892.41;;;21.67;33.88
30724;BME280;17473;52.286;20.930;2022-09-25T12:20:27;99880.63;;;21.74;34.23
30724;BME280;17473;52.286;20.930;2022-09-25T12:23:22;99881.84;;;22.03;33.47
30724;BME280;17473;52.286;20.930;2022-09-25T12:26:09;99885.34;;;21.13;34.72
30724;BME280;17473;52.286;20.930;2022-09-25T12:29:33;99873.47;;;21.26;34.86
30724;BME280;17473;52.286;20.930;2022-09-25T12:32:23;99868.16;;;21.73;34.28
30724;BME280;17473;52.286;20.930;2022-09-25T12:38:01;99865.41;;;20.71;36.20
30724;BME280;17473;52.286;20.930;2022-09-25T12:40:57;99861.16;;;21.16;35.42
30724;BME280;17473;52.286;20.930;2022-09-25T12:49:46;99858.78;;;20.39;37.24
30724;BME280;17473;52.286;20.930;2022-09-25T12:52:29;99857.84;;;20.43;37.10
30724;BME280;17473;52.286;20.930;2022-09-25T12:55:14;99850.09;;;20.22;37.78
30724;BME280;17473;52.286;20.930;2022-09-25T12:57:50;99849.44;;;20.04;37.65
30724;BME280;17473;52.286;20.930;2022-09-25T13:00:22;99847.81;;;20.56;36.76
30724;BME280;17473;52.286;20.930;2022-09-25T13:03:19;99846.16;;;20.46;37.83
30724;BME280;17473;52.286;20.930;2022-09-25T13:06:08;99840.19;;;20.27;38.00
30724;BME280;17473;52.286;20.930;2022-09-25T13:08:54;99841.50;;;19.96;38.57
30724;BME280;17473;52.286;20.930;2022-09-25T13:12:06;99833.50;;;20.56;38.71
30724;BME280;17473;52.286;20.930;2022-09-25T13:14:45;99843.50;;;20.44;38.19
30724;BME280;17473;52.286;20.930;2022-09-25T13:17:14;99833.91;;;20.29;38.29
30724;BME280;17473;52.286;20.930;2022-09-25T13:19:41;99829.88;;;20.60;37.81
30724;BME280;17473;52.286;20.930;2022-09-25T13:22:24;99833.06;;;20.24;38.06
30724;BME280;17473;52.286;20.930;2022-09-25T13:25:10;99827.47;;;20.41;38.28
30724;BME280;17473;52.286;20.930;2022-09-25T13:27:43;99829.34;;;20.35;38.75
30724;BME280;17473;52.286;20.930;2022-09-25T13:30:27;99821.22;;;20.41;39.23
30724;BME280;17473;52.286;20.930;2022-09-25T13:32:57;99820.34;;;20.40;39.88
30724;BME280;17473;52.286;20.930;2022-09-25T13:35:27;99815.69;;;20.50;39.34
30724;BME280;17473;52.286;20.930;2022-09-25T13:38:14;99818.72;;;20.88;38.60
30724;BME280;17473;52.286;20.930;2022-09-25T13:41:12;99809.34;;;20.56;38.44
30724;BME280;17473;52.286;20.930;2022-09-25T13:43:40;99814.84;;;20.49;38.12
30724;BME280;17473;52.286;20.930;2022-09-25T13:48:43;99811.88;;;20.65;38.47
30724;BME280;17473;52.286;20.930;2022-09-25T14:06:42;99795.38;;;20.37;39.08
30724;BME280;17473;52.286;20.930;2022-09-25T14:09:26;99787.50;;;20.24;39.42
30724;BME280;17473;52.286;20.930;2022-09-25T14:12:34;99795.47;;;20.30;39.70
30724;BME280;17473;52.286;20.930;2022-09-25T14:17:53;99798.31;;;20.21;40.08
30724;BME280;17473;52.286;20.930;2022-09-25T14:20:44;99798.50;;;20.06;40.73
30724;BME280;17473;52.286;20.930;2022-09-25T14:23:24;99804.13;;;19.87;40.67
30724;BME280;17473;52.286;20.930;2022-09-25T14:26:03;99798.22;;;20.26;40.66
30724;BME280;17473;52.286;20.930;2022-09-25T14:28:43;99796.97;;;19.84;41.83
30724;BME280;17473;52.286;20.930;2022-09-25T14:37:54;99791.00;;;19.64;41.84
30724;BME280;17473;52.286;20.930;2022-09-25T14:40:36;99776.75;;;19.63;41.85
30724;BME280;17473;52.286;20.930;2022-09-25T14:46:14;99775.16;;;19.47;42.65
30724;BME280;17473;52.286;20.930;2022-09-25T14:49:15;99770.00;;;19.31;42.54
30724;BME280;17473;52.286;20.930;2022-09-25T14:51:46;99767.50;;;19.16;42.65
30724;BME280;17473;52.286;20.930;2022-09-25T14:54:19;99767.34;;;19.31;42.70
30724;BME280;17473;52.286;20.930;2022-09-25T14:56:53;99775.13;;;19.48;42.42
30724;BME280;17473;52.286;20.930;2022-09-25T14:59:40;99768.91;;;19.48;43.16
30724;BME280;17473;52.286;20.930;2022-09-25T15:02:40;99758.88;;;19.64;43.85
30724;BME280;17473;52.286;20.930;2022-09-25T15:07:50;99763.66;;;19.37;43.21
30724;BME280;17473;52.286;20.930;2022-09-25T15:13:17;99756.78;;;19.16;43.89
30724;BME280;17473;52.286;20.930;2022-09-25T15:15:54;99752.22;;;19.24;44.74
30724;BME280;17473;52.286;20.930;2022-09-25T15:18:49;99761.09;;;19.28;44.79
30724;BME280;17473;52.286;20.930;2022-09-25T15:23:53;99758.56;;;19.18;45.12
30724;BME280;17473;52.286;20.930;2022-09-25T15:26:21;99755.75;;;19.28;45.75
30724;BME280;17473;52.286;20.930;2022-09-25T15:28:49;99759.41;;;19.20;45.16
30724;BME280;17473;52.286;20.930;2022-09-25T15:31:17;99746.25;;;19.02;44.50
30724;BME280;17473;52.286;20.930;2022-09-25T15:34:02;99746.25;;;19.02;44.01
30724;BME280;17473;52.286;20.930;2022-09-25T15:36:29;99744.66;;;18.79;44.79
30724;BME280;17473;52.286;20.930;2022-09-25T15:38:59;99733.78;;;18.99;44.36
30724;BME280;17473;52.286;20.930;2022-09-25T15:41:29;99737.47;;;18.86;44.77